sensor_id;sensor_type;location;lat;lon;timestamp;temperature;humidity
7028;DHT22;3555;53.248;10.336;2022-09-03T00:00:35;16.00;99.90
7028;DHT22;3555;53.248;10.336;2022-09-03T00:03:07;16.00;99.90
7028;DHT22;3555;53.248;10.336;2022-09-03T00:05:39;15.90;99.90
7028;DHT22;3555;53.248;10.336;2022-09-03T00:08:10;15.90;99.90
7028;DHT22;3555;53.248;10.336;2022-09-03T00:10:44;15.90;99.90
7028;DHT22;3555;53.248;10.336;2022-09-03T00:13:15;16.00;99.90
7028;DHT22;3555;53.248;10.336;2022-09-03T00:15:43;15.80;99.90
7028;DHT22;3555;53.248;10.336;2022-09-03T00:18:13;15.80;99.90
7028;DHT22;3555;53.248;10.336;2022-09-03T00:20:45;15.70;99.90
7028;DHT22;3555;53.248;10.336;2022-09-03T00:23:18;15.70;99.90
7028;DHT22;3555;53.248;10.336;2022-09-03T00:25:50;15.60;99.90
7028;DHT22;3555;53.248;10.336;2022-09-03T00:28:21;15.50;1.00
7028;DHT22;3555;53.248;10.336;2022-09-03T00:31:05;15.60;99.90
7028;DHT22;3555;53.248;10.336;2022-09-03T00:33:33;15.70;99.90
7028;DHT22;3555;53.248;10.336;2022-09-03T00:36:09;15.60;1.00
7028;DHT22;3555;53.248;10.336;2022-09-03T00:38:37;15.60;1.00
7028;DHT22;3555;53.248;10.336;2022-09-03T00:41:08;15.70;1.00
7028;DHT22;3555;53.248;10.336;2022-09-03T00:43:53;15.70;1.00
7028;DHT22;3555;53.248;10.336;2022-09-03T00:46:31;15.50;1.00
7028;DHT22;3555;53.248;10.336;2022-09-03T00:49:17;15.50;1.00
7028;DHT22;3555;53.248;10.336;2022-09-03T00:51:52;15.50;1.00
7028;DHT22;3555;53.248;10.336;2022-09-03T00:54:31;15.60;99.90
7028;DHT22;3555;53.248;10.336;2022-09-03T00:57:17;15.50;1.00
7028;DHT22;3555;53.248;10.336;2022-09-03T00:59:54;15.50;1.00
7028;DHT22;3555;53.248;10.336;2022-09-03T01:02:28;15.50;1.00
7028;DHT22;3555;53.248;10.336;2022-09-03T01:05:06;15.50;1.00
7028;DHT22;3555;53.248;10.336;2022-09-03T01:07:42;15.50;1.00
7028;DHT22;3555;53.248;10.336;2022-09-03T01:10:20;15.50;1.00
7028;DHT22;3555;53.248;10.336;2022-09-03T01:12:55;15.50;1.00
7028;DHT22;3555;53.248;10.336;2022-09-03T01:15:29;15.40;1.00
7028;DHT22;3555;53.248;10.336;2022-09-03T01:18:14;15.30;1.00
7028;DHT22;3555;53.248;10.336;2022-09-03T01:20:54;15.40;1.00
7028;DHT22;3555;53.248;10.336;2022-09-03T01:23:45;15.40;1.00
7028;DHT22;3555;53.248;10.336;2022-09-03T01:26:28;15.50;1.00
7028;DHT22;3555;53.248;10.336;2022-09-03T01:29:05;15.50;1.00
7028;DHT22;3555;53.248;10.336;2022-09-03T01:31:41;15.50;1.00
7028;DHT22;3555;53.248;10.336;2022-09-03T01:34:18;15.40;1.00
7028;DHT22;3555;53.248;10.336;2022-09-03T01:36:52;15.40;1.00
7028;DHT22;3555;53.248;10.336;2022-09-03T01:39:27;15.40;1.00
7028;DHT22;3555;53.248;10.336;2022-09-03T01:42:01;15.40;1.00
7028;DHT22;3555;53.248;10.336;2022-09-03T01:44:54;15.40;1.00
7028;DHT22;3555;53.248;10.336;2022-09-03T01:47:34;15.50;1.00
7028;DHT22;3555;53.248;10.336;2022-09-03T01:50:06;15.20;1.00
7028;DHT22;3555;53.248;10.336;2022-09-03T01:52:42;15.30;1.00
7028;DHT22;3555;53.248;10.336;2022-09-03T01:55:22;15.30;1.00
7028;DHT22;3555;53.248;10.336;2022-09-03T01:57:54;15.30;1.00
7028;DHT22;3555;53.248;10.336;2022-09-03T02:00:24;15.00;1.00
7028;DHT22;3555;53.248;10.336;2022-09-03T02:02:52;15.10;1.00
7028;DHT22;3555;53.248;10.336;2022-09-03T02:05:21;15.10;1.00
7028;DHT22;3555;53.248;10.336;2022-09-03T02:07:54;15.10;1.00
7028;DHT22;3555;53.248;10.336;2022-09-03T02:10:25;15.00;1.00
7028;DHT22;3555;53.248;10.336;2022-09-03T02:12:56;14.90;1.00
7028;DHT22;3555;53.248;10.336;2022-09-03T02:15:26;14.80;1.00
7028;DHT22;3555;53.248;10.336;2022-09-03T02:17:57;14.80;1.00
7028;DHT22;3555;53.248;10.336;2022-09-03T02:20:26;14.70;1.00
7028;DHT22;3555;53.248;10.336;2022-09-03T02:22:55;14.80;1.00
7028;DHT22;3555;53.248;10.336;2022-09-03T02:25:25;14.90;1.00
7028;DHT22;3555;53.248;10.336;2022-09-03T02:27:54;14.80;1.00
7028;DHT22;3555;53.248;10.336;2022-09-03T02:30:21;14.90;1.00
7028;DHT22;3555;53.248;10.336;2022-09-03T02:32:49;14.80;1.00
7028;DHT22;3555;53.248;10.336;2022-09-03T02:35:16;14.90;1.00
7028;DHT22;3555;53.248;10.336;2022-09-03T02:37:43;14.80;1.00
7028;DHT22;3555;53.248;10.336;2022-09-03T02:40:10;14.80;1.00
7028;DHT22;3555;53.248;10.336;2022-09-03T02:42:37;14.80;1.00
7028;DHT22;3555;53.248;10.336;2022-09-03T02:45:13;14.70;1.00
7028;DHT22;3555;53.248;10.336;2022-09-03T02:47:49;14.60;1.00
7028;DHT22;3555;53.248;10.336;2022-09-03T02:50:17;14.50;1.00
7028;DHT22;3555;53.248;10.336;2022-09-03T02:52:44;14.60;1.00
7028;DHT22;3555;53.248;10.336;2022-09-03T02:55:11;14.60;1.00
7028;DHT22;3555;53.248;10.336;2022-09-03T02:57:38;14.50;1.00
7028;DHT22;3555;53.248;10.336;2022-09-03T03:00:05;14.50;1.00
7028;DHT22;3555;53.248;10.336;2022-09-03T03:02:33;14.50;1.00
7028;DHT22;3555;53.248;10.336;2022-09-03T03:05:01;14.50;1.00
7028;DHT22;3555;53.248;10.336;2022-09-03T03:07:31;14.40;1.00
7028;DHT22;3555;53.248;10.336;2022-09-03T03:09:59;14.30;1.00
7028;DHT22;3555;53.248;10.336;2022-09-03T03:12:26;14.20;1.00
7028;DHT22;3555;53.248;10.336;2022-09-03T03:14:54;14.30;1.00
7028;DHT22;3555;53.248;10.336;2022-09-03T03:17:20;14.20;1.00
7028;DHT22;3555;53.248;10.336;2022-09-03T03:19:47;14.10;1.00
7028;DHT22;3555;53.248;10.336;2022-09-03T03:22:15;14.10;1.00
7028;DHT22;3555;53.248;10.336;2022-09-03T03:24:42;14.20;1.00
7028;DHT22;3555;53.248;10.336;2022-09-03T03:27:09;14.10;1.00
7028;DHT22;3555;53.248;10.336;2022-09-03T03:29:37;14.10;1.00
7028;DHT22;3555;53.248;10.336;2022-09-03T03:32:04;14.00;1.00
7028;DHT22;3555;53.248;10.336;2022-09-03T03:34:31;14.00;1.00
7028;DHT22;3555;53.248;10.336;2022-09-03T03:36:58;14.00;1.00
7028;DHT22;3555;53.248;10.336;2022-09-03T03:39:26;14.10;1.00
7028;DHT22;3555;53.248;10.336;2022-09-03T03:41:53;14.10;1.00
7028;DHT22;3555;53.248;10.336;2022-09-03T03:44:21;14.10;1.00
7028;DHT22;3555;53.248;10.336;2022-09-03T03:46:48;14.10;1.00
7028;DHT22;3555;53.248;10.336;2022-09-03T03:49:15;14.10;1.00
7028;DHT22;3555;53.248;10.336;2022-09-03T03:51:42;14.10;1.00
7028;DHT22;3555;53.248;10.336;2022-09-03T03:54:08;14.10;1.00
7028;DHT22;3555;53.248;10.336;2022-09-03T03:56:36;14.00;1.00
7028;DHT22;3555;53.248;10.336;2022-09-03T03:59:04;14.00;1.00
7028;DHT22;3555;53.248;10.336;2022-09-03T04:01:30;14.00;1.00
7028;DHT22;3555;53.248;10.336;2022-09-03T04:03:58;14.00;1.00
7028;DHT22;3555;53.248;10.336;2022-09-03T04:06:26;14.00;1.00
7028;DHT22;3555;53.248;10.336;2022-09-03T04:08:53;14.10;1.00
7028;DHT22;3555;53.248;10.336;2022-09-03T04:11:21;14.10;1.00
7028;DHT22;3555;53.248;10.336;2022-09-03T04:13:50;14.20;1.00
7028;DHT22;3555;53.248;10.336;2022-09-03T04:16:18;14.10;1.00
7028;DHT22;3555;53.248;10.336;2022-09-03T04:18:46;14.00;1.00
7028;DHT22;3555;53.248;10.336;2022-09-03T04:21:15;13.90;1.00
7028;DHT22;3555;53.248;10.336;2022-09-03T04:23:43;13.80;1.00
7028;DHT22;3555;53.248;10.336;2022-09-03T04:26:12;13.80;5.60
7028;DHT22;3555;53.248;10.336;2022-09-03T04:28:39;13.70;34.90
7028;DHT22;3555;53.248;10.336;2022-09-03T04:31:09;13.70;78.50
7028;DHT22;3555;53.248;10.336;2022-09-03T04:33:37;13.70;87.20
7028;DHT22;3555;53.248;10.336;2022-09-03T04:36:06;13.70;92.70
7028;DHT22;3555;53.248;10.336;2022-09-03T04:38:34;13.70;43.90
7028;DHT22;3555;53.248;10.336;2022-09-03T04:41:01;13.60;98.70
7028;DHT22;3555;53.248;10.336;2022-09-03T04:43:29;13.70;91.30
7028;DHT22;3555;53.248;10.336;2022-09-03T04:45:56;13.70;99.90
7028;DHT22;3555;53.248;10.336;2022-09-03T04:48:25;13.70;82.60
7028;DHT22;3555;53.248;10.336;2022-09-03T04:50:52;13.70;56.80
7028;DHT22;3555;53.248;10.336;2022-09-03T04:53:20;13.80;79.70
7028;DHT22;3555;53.248;10.336;2022-09-03T04:55:48;13.90;10.90
7028;DHT22;3555;53.248;10.336;2022-09-03T04:58:15;14.00;1.00
7028;DHT22;3555;53.248;10.336;2022-09-03T05:00:42;13.90;1.00
7028;DHT22;3555;53.248;10.336;2022-09-03T05:03:09;14.00;1.00
7028;DHT22;3555;53.248;10.336;2022-09-03T05:05:38;14.00;1.00
7028;DHT22;3555;53.248;10.336;2022-09-03T05:08:05;14.10;1.00
7028;DHT22;3555;53.248;10.336;2022-09-03T05:10:32;14.10;1.00
7028;DHT22;3555;53.248;10.336;2022-09-03T05:13:00;14.10;1.00
7028;DHT22;3555;53.248;10.336;2022-09-03T05:15:28;14.00;1.00
7028;DHT22;3555;53.248;10.336;2022-09-03T05:17:55;14.00;1.00
7028;DHT22;3555;53.248;10.336;2022-09-03T05:20:23;14.00;1.00
7028;DHT22;3555;53.248;10.336;2022-09-03T05:22:51;14.00;1.00
7028;DHT22;3555;53.248;10.336;2022-09-03T05:25:18;13.90;14.50
7028;DHT22;3555;53.248;10.336;2022-09-03T05:27:44;13.80;99.90
7028;DHT22;3555;53.248;10.336;2022-09-03T05:30:12;13.80;99.90
7028;DHT22;3555;53.248;10.336;2022-09-03T05:32:39;13.80;99.90
7028;DHT22;3555;53.248;10.336;2022-09-03T05:35:07;13.80;99.90
7028;DHT22;3555;53.248;10.336;2022-09-03T05:37:35;14.00;99.90
7028;DHT22;3555;53.248;10.336;2022-09-03T05:40:04;14.20;40.40
7028;DHT22;3555;53.248;10.336;2022-09-03T05:42:31;14.30;20.80
7028;DHT22;3555;53.248;10.336;2022-09-03T05:44:59;14.40;1.00
7028;DHT22;3555;53.248;10.336;2022-09-03T05:47:26;14.60;1.00
7028;DHT22;3555;53.248;10.336;2022-09-03T05:49:53;14.80;1.00
7028;DHT22;3555;53.248;10.336;2022-09-03T05:52:20;15.00;1.00
7028;DHT22;3555;53.248;10.336;2022-09-03T05:54:48;15.20;1.00
7028;DHT22;3555;53.248;10.336;2022-09-03T05:57:16;15.40;1.00
7028;DHT22;3555;53.248;10.336;2022-09-03T05:59:42;15.70;1.00
7028;DHT22;3555;53.248;10.336;2022-09-03T06:02:09;16.00;99.90
7028;DHT22;3555;53.248;10.336;2022-09-03T06:04:36;16.10;99.90
7028;DHT22;3555;53.248;10.336;2022-09-03T06:07:03;16.30;99.90
7028;DHT22;3555;53.248;10.336;2022-09-03T06:09:30;16.30;99.90
7028;DHT22;3555;53.248;10.336;2022-09-03T06:11:57;16.50;99.90
7028;DHT22;3555;53.248;10.336;2022-09-03T06:14:25;16.80;99.90
7028;DHT22;3555;53.248;10.336;2022-09-03T06:16:52;16.90;77.80
7028;DHT22;3555;53.248;10.336;2022-09-03T06:19:20;17.10;67.10
7028;DHT22;3555;53.248;10.336;2022-09-03T06:21:47;17.20;13.50
7028;DHT22;3555;53.248;10.336;2022-09-03T06:24:15;17.30;1.00
7028;DHT22;3555;53.248;10.336;2022-09-03T06:26:43;17.60;1.00
7028;DHT22;3555;53.248;10.336;2022-09-03T06:29:10;17.90;1.00
7028;DHT22;3555;53.248;10.336;2022-09-03T06:31:39;18.00;1.00
7028;DHT22;3555;53.248;10.336;2022-09-03T06:34:06;18.20;1.00
7028;DHT22;3555;53.248;10.336;2022-09-03T06:36:33;18.40;1.00
7028;DHT22;3555;53.248;10.336;2022-09-03T06:38:59;18.60;1.00
7028;DHT22;3555;53.248;10.336;2022-09-03T06:41:28;18.70;1.00
7028;DHT22;3555;53.248;10.336;2022-09-03T06:43:59;18.90;1.00
7028;DHT22;3555;53.248;10.336;2022-09-03T06:46:28;18.80;1.00
7028;DHT22;3555;53.248;10.336;2022-09-03T06:48:57;19.00;1.00
7028;DHT22;3555;53.248;10.336;2022-09-03T06:51:25;19.10;1.00
7028;DHT22;3555;53.248;10.336;2022-09-03T06:53:53;19.20;1.00
7028;DHT22;3555;53.248;10.336;2022-09-03T06:56:23;19.20;1.00
7028;DHT22;3555;53.248;10.336;2022-09-03T06:58:52;19.10;1.00
7028;DHT22;3555;53.248;10.336;2022-09-03T07:01:20;18.70;1.00
7028;DHT22;3555;53.248;10.336;2022-09-03T07:03:51;18.50;1.00
7028;DHT22;3555;53.248;10.336;2022-09-03T07:06:23;18.70;1.00
7028;DHT22;3555;53.248;10.336;2022-09-03T07:08:50;18.60;1.00
7028;DHT22;3555;53.248;10.336;2022-09-03T07:11:18;18.60;1.00
7028;DHT22;3555;53.248;10.336;2022-09-03T07:13:48;18.30;1.00
7028;DHT22;3555;53.248;10.336;2022-09-03T07:16:17;18.60;1.00
7028;DHT22;3555;53.248;10.336;2022-09-03T07:18:44;18.60;1.00
7028;DHT22;3555;53.248;10.336;2022-09-03T07:21:13;18.80;1.00
7028;DHT22;3555;53.248;10.336;2022-09-03T07:23:42;18.90;1.00
7028;DHT22;3555;53.248;10.336;2022-09-03T07:26:10;19.30;1.00
7028;DHT22;3555;53.248;10.336;2022-09-03T07:28:39;19.00;1.00
7028;DHT22;3555;53.248;10.336;2022-09-03T07:31:08;19.30;1.00
7028;DHT22;3555;53.248;10.336;2022-09-03T07:33:36;19.60;1.00
7028;DHT22;3555;53.248;10.336;2022-09-03T07:36:04;19.70;1.00
7028;DHT22;3555;53.248;10.336;2022-09-03T07:38:32;20.00;1.00
7028;DHT22;3555;53.248;10.336;2022-09-03T07:41:02;20.20;1.00
7028;DHT22;3555;53.248;10.336;2022-09-03T07:43:33;20.10;1.00
7028;DHT22;3555;53.248;10.336;2022-09-03T07:46:00;19.80;1.00
7028;DHT22;3555;53.248;10.336;2022-09-03T07:48:27;20.20;1.00
7028;DHT22;3555;53.248;10.336;2022-09-03T07:50:57;20.40;1.00
7028;DHT22;3555;53.248;10.336;2022-09-03T07:53:26;20.20;1.00
7028;DHT22;3555;53.248;10.336;2022-09-03T07:55:53;20.20;1.00
7028;DHT22;3555;53.248;10.336;2022-09-03T07:58:22;20.60;1.00
7028;DHT22;3555;53.248;10.336;2022-09-03T08:00:49;20.80;1.00
7028;DHT22;3555;53.248;10.336;2022-09-03T08:03:16;20.80;1.00
7028;DHT22;3555;53.248;10.336;2022-09-03T08:05:43;21.00;1.00
7028;DHT22;3555;53.248;10.336;2022-09-03T08:08:10;21.10;1.00
7028;DHT22;3555;53.248;10.336;2022-09-03T08:10:38;21.20;1.00
7028;DHT22;3555;53.248;10.336;2022-09-03T08:13:05;21.40;1.00
7028;DHT22;3555;53.248;10.336;2022-09-03T08:15:33;21.50;1.00
7028;DHT22;3555;53.248;10.336;2022-09-03T08:18:02;21.90;1.00
7028;DHT22;3555;53.248;10.336;2022-09-03T08:20:29;21.70;1.00
7028;DHT22;3555;53.248;10.336;2022-09-03T08:23:00;21.70;1.00
7028;DHT22;3555;53.248;10.336;2022-09-03T08:25:28;22.00;1.00
7028;DHT22;3555;53.248;10.336;2022-09-03T08:27:57;22.00;1.00
7028;DHT22;3555;53.248;10.336;2022-09-03T08:30:24;22.20;1.00
7028;DHT22;3555;53.248;10.336;2022-09-03T08:32:53;22.70;1.00
7028;DHT22;3555;53.248;10.336;2022-09-03T08:35:21;22.90;1.00
7028;DHT22;3555;53.248;10.336;2022-09-03T08:37:48;22.80;1.00
7028;DHT22;3555;53.248;10.336;2022-09-03T08:40:19;22.80;1.00
7028;DHT22;3555;53.248;10.336;2022-09-03T08:42:57;22.40;1.00
7028;DHT22;3555;53.248;10.336;2022-09-03T08:45:27;22.50;1.00
7028;DHT22;3555;53.248;10.336;2022-09-03T08:48:02;22.60;1.00
7028;DHT22;3555;53.248;10.336;2022-09-03T08:50:32;22.60;1.00
7028;DHT22;3555;53.248;10.336;2022-09-03T08:53:02;22.50;1.00
7028;DHT22;3555;53.248;10.336;2022-09-03T08:55:35;22.50;1.00
7028;DHT22;3555;53.248;10.336;2022-09-03T08:58:10;22.50;1.00
7028;DHT22;3555;53.248;10.336;2022-09-03T09:00:46;22.10;1.00
7028;DHT22;3555;53.248;10.336;2022-09-03T09:03:32;21.90;1.00
7028;DHT22;3555;53.248;10.336;2022-09-03T09:06:07;21.90;1.00
7028;DHT22;3555;53.248;10.336;2022-09-03T09:08:45;22.20;1.00
7028;DHT22;3555;53.248;10.336;2022-09-03T09:11:20;22.30;1.00
7028;DHT22;3555;53.248;10.336;2022-09-03T09:13:55;22.30;1.00
7028;DHT22;3555;53.248;10.336;2022-09-03T09:16:31;22.40;1.00
7028;DHT22;3555;53.248;10.336;2022-09-03T09:19:15;22.20;1.00
7028;DHT22;3555;53.248;10.336;2022-09-03T09:21:49;22.00;1.00
7028;DHT22;3555;53.248;10.336;2022-09-03T09:24:21;22.30;1.00
7028;DHT22;3555;53.248;10.336;2022-09-03T09:26:55;22.50;1.00
7028;DHT22;3555;53.248;10.336;2022-09-03T09:29:25;22.30;1.00
7028;DHT22;3555;53.248;10.336;2022-09-03T09:31:53;22.40;1.00
7028;DHT22;3555;53.248;10.336;2022-09-03T09:34:21;22.20;1.00
7028;DHT22;3555;53.248;10.336;2022-09-03T09:36:51;22.10;1.00
7028;DHT22;3555;53.248;10.336;2022-09-03T09:39:18;21.90;1.00
7028;DHT22;3555;53.248;10.336;2022-09-03T09:41:56;22.00;1.00
7028;DHT22;3555;53.248;10.336;2022-09-03T09:44:25;21.30;1.00
7028;DHT22;3555;53.248;10.336;2022-09-03T09:47:01;21.50;1.00
7028;DHT22;3555;53.248;10.336;2022-09-03T09:49:34;21.80;1.00
7028;DHT22;3555;53.248;10.336;2022-09-03T09:52:04;22.20;1.00
7028;DHT22;3555;53.248;10.336;2022-09-03T09:54:31;22.20;1.00
7028;DHT22;3555;53.248;10.336;2022-09-03T09:56:59;22.10;1.00
7028;DHT22;3555;53.248;10.336;2022-09-03T09:59:28;22.10;1.00
7028;DHT22;3555;53.248;10.336;2022-09-03T10:02:08;22.20;1.00
7028;DHT22;3555;53.248;10.336;2022-09-03T10:04:37;22.20;1.00
7028;DHT22;3555;53.248;10.336;2022-09-03T10:07:20;21.70;1.00
7028;DHT22;3555;53.248;10.336;2022-09-03T10:10:01;21.70;1.00
7028;DHT22;3555;53.248;10.336;2022-09-03T10:12:31;22.00;1.00
7028;DHT22;3555;53.248;10.336;2022-09-03T10:15:14;21.90;1.00
7028;DHT22;3555;53.248;10.336;2022-09-03T10:17:51;21.90;1.00
7028;DHT22;3555;53.248;10.336;2022-09-03T10:20:27;22.10;1.00
7028;DHT22;3555;53.248;10.336;2022-09-03T10:23:02;22.10;1.00
7028;DHT22;3555;53.248;10.336;2022-09-03T10:25:37;22.20;1.00
7028;DHT22;3555;53.248;10.336;2022-09-03T10:28:08;22.40;1.00
7028;DHT22;3555;53.248;10.336;2022-09-03T10:30:46;22.60;1.00
7028;DHT22;3555;53.248;10.336;2022-09-03T10:33:23;22.60;1.00
7028;DHT22;3555;53.248;10.336;2022-09-03T10:36:06;22.60;1.00
7028;DHT22;3555;53.248;10.336;2022-09-03T10:38:35;22.50;1.00
7028;DHT22;3555;53.248;10.336;2022-09-03T10:41:13;22.80;1.00
7028;DHT22;3555;53.248;10.336;2022-09-03T10:43:59;22.80;1.00
7028;DHT22;3555;53.248;10.336;2022-09-03T10:46:30;22.80;1.00
7028;DHT22;3555;53.248;10.336;2022-09-03T10:49:13;22.50;1.00
7028;DHT22;3555;53.248;10.336;2022-09-03T10:51:50;22.40;1.00
7028;DHT22;3555;53.248;10.336;2022-09-03T10:54:31;22.40;1.00
7028;DHT22;3555;53.248;10.336;2022-09-03T10:57:08;22.40;1.00
7028;DHT22;3555;53.248;10.336;2022-09-03T10:59:49;22.20;1.00
7028;DHT22;3555;53.248;10.336;2022-09-03T11:02:45;22.20;1.00
7028;DHT22;3555;53.248;10.336;2022-09-03T11:05:20;22.00;1.00
7028;DHT22;3555;53.248;10.336;2022-09-03T11:07:53;22.10;1.00
7028;DHT22;3555;53.248;10.336;2022-09-03T11:10:26;21.80;99.90
7028;DHT22;3555;53.248;10.336;2022-09-03T11:13:01;22.10;99.90
7028;DHT22;3555;53.248;10.336;2022-09-03T11:15:31;22.30;99.90
7028;DHT22;3555;53.248;10.336;2022-09-03T11:18:16;22.50;99.90
7028;DHT22;3555;53.248;10.336;2022-09-03T11:20:45;22.60;99.90
7028;DHT22;3555;53.248;10.336;2022-09-03T11:23:16;22.70;99.90
7028;DHT22;3555;53.248;10.336;2022-09-03T11:25:49;22.50;99.90
7028;DHT22;3555;53.248;10.336;2022-09-03T11:28:25;22.50;99.90
7028;DHT22;3555;53.248;10.336;2022-09-03T11:31:08;22.60;99.90
7028;DHT22;3555;53.248;10.336;2022-09-03T11:33:40;22.70;99.90
7028;DHT22;3555;53.248;10.336;2022-09-03T11:36:10;22.70;99.90
7028;DHT22;3555;53.248;10.336;2022-09-03T11:38:39;22.90;99.90
7028;DHT22;3555;53.248;10.336;2022-09-03T11:41:12;22.90;99.90
7028;DHT22;3555;53.248;10.336;2022-09-03T11:43:41;22.80;99.90
7028;DHT22;3555;53.248;10.336;2022-09-03T11:46:10;23.00;99.90
7028;DHT22;3555;53.248;10.336;2022-09-03T11:48:41;23.10;99.90
7028;DHT22;3555;53.248;10.336;2022-09-03T11:51:30;22.90;99.90
7028;DHT22;3555;53.248;10.336;2022-09-03T11:54:03;23.00;99.90
7028;DHT22;3555;53.248;10.336;2022-09-03T11:56:31;22.90;99.90
7028;DHT22;3555;53.248;10.336;2022-09-03T11:59:03;22.80;99.90
7028;DHT22;3555;53.248;10.336;2022-09-03T12:01:32;22.70;99.90
7028;DHT22;3555;53.248;10.336;2022-09-03T12:04:03;22.50;99.90
7028;DHT22;3555;53.248;10.336;2022-09-03T12:06:42;22.40;99.90
7028;DHT22;3555;53.248;10.336;2022-09-03T12:12:37;22.70;99.90
7028;DHT22;3555;53.248;10.336;2022-09-03T12:15:16;22.70;99.90
7028;DHT22;3555;53.248;10.336;2022-09-03T12:17:52;22.80;99.90
7028;DHT22;3555;53.248;10.336;2022-09-03T12:20:33;22.90;99.90
7028;DHT22;3555;53.248;10.336;2022-09-03T12:23:00;23.20;99.90
7028;DHT22;3555;53.248;10.336;2022-09-03T12:25:29;23.30;99.90
7028;DHT22;3555;53.248;10.336;2022-09-03T12:27:56;23.20;99.90
7028;DHT22;3555;53.248;10.336;2022-09-03T12:30:25;23.20;99.90
7028;DHT22;3555;53.248;10.336;2022-09-03T12:33:02;23.00;99.90
7028;DHT22;3555;53.248;10.336;2022-09-03T12:35:29;22.80;99.90
7028;DHT22;3555;53.248;10.336;2022-09-03T12:37:56;22.60;99.90
7028;DHT22;3555;53.248;10.336;2022-09-03T12:40:25;22.60;99.90
7028;DHT22;3555;53.248;10.336;2022-09-03T12:42:54;22.50;99.90
7028;DHT22;3555;53.248;10.336;2022-09-03T12:45:22;22.10;99.90
7028;DHT22;3555;53.248;10.336;2022-09-03T12:47:50;22.10;99.90
7028;DHT22;3555;53.248;10.336;2022-09-03T12:50:19;22.20;99.90
7028;DHT22;3555;53.248;10.336;2022-09-03T12:52:48;22.30;99.90
7028;DHT22;3555;53.248;10.336;2022-09-03T12:55:26;22.30;99.90
7028;DHT22;3555;53.248;10.336;2022-09-03T12:58:02;22.40;99.90
7028;DHT22;3555;53.248;10.336;2022-09-03T13:00:32;22.40;99.90
7028;DHT22;3555;53.248;10.336;2022-09-03T13:03:01;22.30;99.90
7028;DHT22;3555;53.248;10.336;2022-09-03T13:05:31;22.20;99.90
7028;DHT22;3555;53.248;10.336;2022-09-03T13:08:01;22.30;99.90
7028;DHT22;3555;53.248;10.336;2022-09-03T13:10:32;22.60;99.90
7028;DHT22;3555;53.248;10.336;2022-09-03T13:13:14;22.40;99.90
7028;DHT22;3555;53.248;10.336;2022-09-03T13:15:55;22.50;99.90
7028;DHT22;3555;53.248;10.336;2022-09-03T13:18:28;22.40;99.90
7028;DHT22;3555;53.248;10.336;2022-09-03T13:21:09;22.50;99.90
7028;DHT22;3555;53.248;10.336;2022-09-03T13:23:59;22.50;99.90
7028;DHT22;3555;53.248;10.336;2022-09-03T13:26:34;22.80;99.90
7028;DHT22;3555;53.248;10.336;2022-09-03T13:32:09;22.80;99.90
7028;DHT22;3555;53.248;10.336;2022-09-03T13:34:46;22.90;99.90
7028;DHT22;3555;53.248;10.336;2022-09-03T13:37:22;22.80;99.90
7028;DHT22;3555;53.248;10.336;2022-09-03T13:39:53;22.70;99.90
7028;DHT22;3555;53.248;10.336;2022-09-03T13:42:25;22.60;99.90
7028;DHT22;3555;53.248;10.336;2022-09-03T13:44:59;22.50;99.90
7028;DHT22;3555;53.248;10.336;2022-09-03T13:47:34;22.60;99.90
7028;DHT22;3555;53.248;10.336;2022-09-03T13:50:37;22.50;99.90
7028;DHT22;3555;53.248;10.336;2022-09-03T13:53:08;22.60;99.90
7028;DHT22;3555;53.248;10.336;2022-09-03T13:55:43;22.70;99.90
7028;DHT22;3555;53.248;10.336;2022-09-03T13:58:19;22.60;99.90
7028;DHT22;3555;53.248;10.336;2022-09-03T14:00:52;22.60;99.90
7028;DHT22;3555;53.248;10.336;2022-09-03T14:03:26;22.60;99.90
7028;DHT22;3555;53.248;10.336;2022-09-03T14:06:03;22.70;99.90
7028;DHT22;3555;53.248;10.336;2022-09-03T14:08:38;22.90;99.90
7028;DHT22;3555;53.248;10.336;2022-09-03T14:11:22;23.00;99.90
7028;DHT22;3555;53.248;10.336;2022-09-03T14:14:05;23.00;99.90
7028;DHT22;3555;53.248;10.336;2022-09-03T14:16:41;23.10;99.90
7028;DHT22;3555;53.248;10.336;2022-09-03T14:19:14;23.00;99.90
7028;DHT22;3555;53.248;10.336;2022-09-03T14:21:45;23.00;99.90
7028;DHT22;3555;53.248;10.336;2022-09-03T14:24:16;22.70;99.90
7028;DHT22;3555;53.248;10.336;2022-09-03T14:26:51;22.80;99.90
7028;DHT22;3555;53.248;10.336;2022-09-03T14:29:22;22.80;99.90
7028;DHT22;3555;53.248;10.336;2022-09-03T14:32:12;23.00;99.90
7028;DHT22;3555;53.248;10.336;2022-09-03T14:34:51;23.00;99.90
7028;DHT22;3555;53.248;10.336;2022-09-03T14:37:38;23.00;99.90
7028;DHT22;3555;53.248;10.336;2022-09-03T14:40:12;23.00;99.90
7028;DHT22;3555;53.248;10.336;2022-09-03T14:42:56;23.10;99.90
7028;DHT22;3555;53.248;10.336;2022-09-03T14:49:07;23.10;99.90
7028;DHT22;3555;53.248;10.336;2022-09-03T14:51:47;23.00;99.90
7028;DHT22;3555;53.248;10.336;2022-09-03T14:54:51;22.90;99.90
7028;DHT22;3555;53.248;10.336;2022-09-03T14:57:34;22.90;99.90
7028;DHT22;3555;53.248;10.336;2022-09-03T15:00:07;22.90;99.90
7028;DHT22;3555;53.248;10.336;2022-09-03T15:05:53;22.90;99.90
7028;DHT22;3555;53.248;10.336;2022-09-03T15:08:37;23.00;99.90
7028;DHT22;3555;53.248;10.336;2022-09-03T15:11:14;23.20;99.90
7028;DHT22;3555;53.248;10.336;2022-09-03T15:13:46;23.00;99.90
7028;DHT22;3555;53.248;10.336;2022-09-03T15:16:28;22.90;99.90
7028;DHT22;3555;53.248;10.336;2022-09-03T15:19:11;22.80;99.90
7028;DHT22;3555;53.248;10.336;2022-09-03T15:21:53;22.70;99.90
7028;DHT22;3555;53.248;10.336;2022-09-03T15:24:35;22.50;99.90
7028;DHT22;3555;53.248;10.336;2022-09-03T15:27:16;22.50;99.90
7028;DHT22;3555;53.248;10.336;2022-09-03T15:29:51;22.50;99.90
7028;DHT22;3555;53.248;10.336;2022-09-03T15:32:36;22.60;99.90
7028;DHT22;3555;53.248;10.336;2022-09-03T15:35:07;22.60;99.90
7028;DHT22;3555;53.248;10.336;2022-09-03T15:37:42;22.60;99.90
7028;DHT22;3555;53.248;10.336;2022-09-03T15:40:23;22.50;99.90
7028;DHT22;3555;53.248;10.336;2022-09-03T15:42:55;22.40;99.90
7028;DHT22;3555;53.248;10.336;2022-09-03T15:45:33;22.30;99.90
7028;DHT22;3555;53.248;10.336;2022-09-03T15:48:09;22.20;99.90
7028;DHT22;3555;53.248;10.336;2022-09-03T15:50:49;22.20;99.90
7028;DHT22;3555;53.248;10.336;2022-09-03T15:53:27;22.20;99.90
7028;DHT22;3555;53.248;10.336;2022-09-03T15:56:06;22.20;99.90
7028;DHT22;3555;53.248;10.336;2022-09-03T15:58:40;22.10;99.90
7028;DHT22;3555;53.248;10.336;2022-09-03T16:01:18;22.30;99.90
7028;DHT22;3555;53.248;10.336;2022-09-03T16:03:56;22.20;99.90
7028;DHT22;3555;53.248;10.336;2022-09-03T16:06:32;22.10;99.90
7028;DHT22;3555;53.248;10.336;2022-09-03T16:09:08;22.10;99.90
7028;DHT22;3555;53.248;10.336;2022-09-03T16:11:39;22.20;99.90
7028;DHT22;3555;53.248;10.336;2022-09-03T16:14:14;22.10;99.90
7028;DHT22;3555;53.248;10.336;2022-09-03T16:16:52;22.00;99.90
7028;DHT22;3555;53.248;10.336;2022-09-03T16:19:26;22.00;99.90
7028;DHT22;3555;53.248;10.336;2022-09-03T16:21:58;22.00;99.90
7028;DHT22;3555;53.248;10.336;2022-09-03T16:24:32;22.00;99.90
7028;DHT22;3555;53.248;10.336;2022-09-03T16:27:08;21.80;99.90
7028;DHT22;3555;53.248;10.336;2022-09-03T16:29:36;21.80;99.90
7028;DHT22;3555;53.248;10.336;2022-09-03T16:32:16;21.70;99.90
7028;DHT22;3555;53.248;10.336;2022-09-03T16:34:56;21.60;99.90
7028;DHT22;3555;53.248;10.336;2022-09-03T16:37:29;21.60;99.90
7028;DHT22;3555;53.248;10.336;2022-09-03T16:40:11;21.50;99.90